Stations météo

Publicité
Chateau Chinon, France (7270): Température de l'air & dewpoint: 13.10.2018 22:00:00 - 19.10.2018 22:00:00 (CEST)Chateau Chinon, France (7270): Vitesse du vent & gusts: 13.10.2018 22:00:00 - 19.10.2018 22:00:00 (CEST)Chateau Chinon, France (7270): Direction du vent: 13.10.2018 22:00:00 - 19.10.2018 22:00:00 (CEST)Chateau Chinon, France (7270): Quantités de précipitations: 13.10.2018 22:00:00 - 19.10.2018 22:00:00 (CEST)
Date & Time tt [°C] td [°C] ff [km/h] ff [knt] fx [km/h] fx [knt] dd rr [mm]
19.10.2018 22:00:00 - - - - - - - -
19.10.2018 21:00:00 11,8 8,5 5 3 16 9 ENE 0,0
19.10.2018 20:00:00 12,3 8,8 4 2 13 7 E -
19.10.2018 19:00:00 13,8 8,6 0 0 13 7 N 0,0
19.10.2018 18:00:00 16,3 9,0 4 2 21 11 E 0,0
19.10.2018 17:00:00 19,0 8,6 4 2 18 10 ENE 0,0
19.10.2018 16:00:00 19,3 8,0 4 2 11 6 E 0,0
19.10.2018 15:00:00 19,1 8,1 4 2 13 7 ESE 0,0
19.10.2018 14:00:00 19,2 7,9 4 2 22 12 E -
19.10.2018 13:00:00 17,9 8,5 4 2 22 12 ENE 0,0
19.10.2018 12:00:00 17,3 8,4 8 4 34 18 ENE 0,0
19.10.2018 11:00:00 16,3 8,8 5 3 21 11 NE 0,0
19.10.2018 10:00:00 13,7 8,7 4 2 24 13 E 0,0
19.10.2018 09:00:00 11,0 8,6 5 3 24 13 ENE 0,0
19.10.2018 08:00:00 10,0 8,1 2 1 21 11 NE -
19.10.2018 07:00:00 10,0 8,3 2 1 13 7 E 0,0
19.10.2018 06:00:00 10,6 8,2 4 2 18 10 ENE 0,0
19.10.2018 05:00:00 11,1 8,0 2 1 16 9 NNE 0,0
19.10.2018 04:00:00 10,8 8,0 2 1 21 11 NNE 0,0
19.10.2018 03:00:00 11,1 8,1 2 1 28 15 ENE 0,0
19.10.2018 02:00:00 12,0 8,5 4 2 31 17 NE -
19.10.2018 01:00:00 12,5 8,8 2 1 28 15 NE 0,0
19.10.2018 00:00:00 13,5 9,0 8 4 29 16 ENE 0,0
18.10.2018 23:00:00 13,1 8,8 4 2 22 12 ENE 0,0
18.10.2018 22:00:00 13,4 8,7 4 2 26 14 E 0,0
18.10.2018 21:00:00 13,6 8,8 5 3 28 15 ENE 0,0
18.10.2018 20:00:00 15,5 7,8 8 4 22 12 ENE -
18.10.2018 19:00:00 16,8 6,3 5 3 28 15 ENE 0,0
18.10.2018 18:00:00 18,7 5,2 5 3 29 16 ENE 0,0
18.10.2018 17:00:00 20,6 6,5 5 3 28 15 NNE 0,0
18.10.2018 16:00:00 21,5 5,8 8 4 34 18 NE 0,0
18.10.2018 15:00:00 21,5 4,1 8 4 28 15 ENE 0,0
18.10.2018 14:00:00 21,7 4,3 8 4 28 15 ENE -
18.10.2018 13:00:00 21,4 4,9 5 3 22 12 ENE 0,0
18.10.2018 12:00:00 20,5 6,8 4 2 18 10 E 0,0
18.10.2018 11:00:00 18,7 6,8 5 3 29 16 ENE 0,0
18.10.2018 10:00:00 16,0 7,2 4 2 26 14 E 0,0
18.10.2018 09:00:00 12,3 6,8 4 2 16 9 E 0,0
18.10.2018 08:00:00 11,9 6,6 2 1 22 12 E -
18.10.2018 07:00:00 12,5 7,0 5 3 22 12 E 0,0
18.10.2018 06:00:00 12,2 7,1 4 2 18 10 E 0,0
18.10.2018 05:00:00 11,9 7,0 4 2 11 6 E 0,0
18.10.2018 04:00:00 12,3 6,8 4 2 11 6 E 0,0
18.10.2018 03:00:00 12,1 6,8 5 3 13 7 E 0,0
18.10.2018 02:00:00 12,4 7,5 4 2 15 8 E -
18.10.2018 01:00:00 13,6 7,6 4 2 22 12 E 0,0
18.10.2018 00:00:00 13,5 7,9 8 4 24 13 E 0,0
17.10.2018 23:00:00 13,4 8,2 8 4 24 13 ENE 0,0
17.10.2018 22:00:00 13,5 8,1 5 3 26 14 ENE 0,0
17.10.2018 21:00:00 14,1 7,8 5 3 21 11 ENE 0,0
17.10.2018 20:00:00 14,1 7,2 4 2 16 9 E -
17.10.2018 19:00:00 16,1 6,8 2 1 16 9 NE 0,0
17.10.2018 18:00:00 18,6 5,8 4 2 22 12 ENE 0,0
17.10.2018 17:00:00 20,3 4,7 4 2 21 11 ENE 0,0
17.10.2018 16:00:00 21,5 4,5 4 2 16 9 ENE 0,0
17.10.2018 15:00:00 21,9 4,0 5 3 18 10 ENE 0,0
17.10.2018 14:00:00 21,7 3,8 5 3 18 10 ENE 0,0
17.10.2018 13:00:00 20,2 7,2 5 3 18 10 NNE 0,0
17.10.2018 12:00:00 18,6 7,4 4 2 15 8 N 0,0
17.10.2018 11:00:00 17,9 7,3 4 2 - - ENE -
17.10.2018 10:00:00 16,0 6,7 4 2 8 4 N 0,0
17.10.2018 09:00:00 14,4 6,5 2 1 5 3 N 0,0
17.10.2018 08:00:00 13,7 6,5 2 1 8 4 SE -
17.10.2018 07:00:00 13,3 6,6 5 3 9 5 SE 0,0
17.10.2018 06:00:00 14,8 6,4 4 2 8 4 SE 0,0
17.10.2018 05:00:00 13,8 6,9 5 3 11 6 SE 0,0
17.10.2018 04:00:00 14,3 6,9 4 2 11 6 SE 0,0
17.10.2018 03:00:00 14,5 6,8 4 2 9 5 ESE 0,0
17.10.2018 02:00:00 14,3 7,1 4 2 9 5 ESE -
17.10.2018 01:00:00 13,9 7,0 4 2 13 7 E 0,0
17.10.2018 00:00:00 14,5 6,6 4 2 11 6 ESE 0,0
16.10.2018 23:00:00 15,1 6,9 4 2 8 4 ESE 0,0
16.10.2018 22:00:00 15,0 7,0 4 2 9 5 E 0,0
16.10.2018 21:00:00 15,3 7,3 4 2 13 7 E 0,0
16.10.2018 20:00:00 16,2 7,1 4 2 13 7 E -
16.10.2018 19:00:00 17,8 6,9 2 1 13 7 ENE 0,0
16.10.2018 18:00:00 19,8 6,9 4 2 16 9 NW 0,0
16.10.2018 17:00:00 22,0 6,2 5 3 15 8 NNW 0,0
16.10.2018 16:00:00 23,1 5,9 4 2 15 8 NW 0,0
16.10.2018 15:00:00 21,8 5,6 4 2 13 7 NNW 0,0
16.10.2018 14:00:00 21,6 6,3 2 1 13 7 S -
16.10.2018 13:00:00 20,8 7,1 4 2 11 6 W 0,0
16.10.2018 12:00:00 19,2 7,0 4 2 11 6 W 0,0
16.10.2018 11:00:00 18,5 6,7 2 1 8 4 WNW 0,0
16.10.2018 10:00:00 17,0 7,1 0 0 8 4 N 0,0
16.10.2018 09:00:00 14,0 7,1 5 3 8 4 SE 0,0
16.10.2018 08:00:00 13,3 7,3 2 1 4 2 SE -
16.10.2018 07:00:00 14,1 6,9 0 0 8 4 N 0,0
16.10.2018 06:00:00 14,5 6,6 0 0 11 6 N 0,0
16.10.2018 05:00:00 14,9 7,0 4 2 15 8 S 0,0
16.10.2018 04:00:00 15,2 7,2 4 2 13 7 SW 0,0
16.10.2018 03:00:00 15,5 7,0 4 2 15 8 WSW 0,0
16.10.2018 02:00:00 16,4 5,6 4 2 9 5 WSW -
16.10.2018 01:00:00 16,6 5,2 5 3 9 5 SSW 0,0
16.10.2018 00:00:00 15,6 6,3 4 2 8 4 E 0,0
15.10.2018 23:00:00 15,1 6,1 2 1 9 5 E 0,0
15.10.2018 22:00:00 14,9 7,4 4 2 15 8 E 0,0
15.10.2018 21:00:00 15,1 7,4 2 1 11 6 E 0,0
15.10.2018 20:00:00 15,1 7,1 2 1 15 8 W -
15.10.2018 19:00:00 17,9 4,5 4 2 11 6 SSW 0,0
15.10.2018 18:00:00 18,9 4,3 4 2 18 10 SE 0,0
15.10.2018 17:00:00 22,4 3,5 4 2 18 10 ESE 0,0
15.10.2018 16:00:00 22,9 3,4 2 1 16 9 ESE 0,0
15.10.2018 15:00:00 22,5 4,0 4 2 21 11 E 0,0
15.10.2018 14:00:00 22,0 5,0 4 2 22 12 E -
15.10.2018 13:00:00 20,6 5,0 5 3 24 13 E 0,0
15.10.2018 12:00:00 20,4 4,0 9 5 29 16 SE 0,0
15.10.2018 11:00:00 19,7 7,1 4 2 18 10 ESE 0,0
15.10.2018 10:00:00 17,3 6,8 5 3 21 11 E 0,0
15.10.2018 09:00:00 14,9 6,7 4 2 15 8 E 0,0
15.10.2018 08:00:00 14,6 6,4 4 2 21 11 E -
15.10.2018 07:00:00 15,8 6,0 5 3 28 15 S 0,0
15.10.2018 06:00:00 16,1 6,2 8 4 46 25 S 0,0
15.10.2018 05:00:00 16,4 5,9 11 6 54 29 S 0,0
15.10.2018 04:00:00 16,8 5,1 13 7 55 30 S 0,0
15.10.2018 03:00:00 16,5 4,8 13 7 57 31 S 0,0
15.10.2018 02:00:00 17,1 4,1 15 8 57 31 S -
15.10.2018 01:00:00 16,7 5,0 13 7 55 30 S 0,0
15.10.2018 00:00:00 16,9 5,8 13 7 46 25 S 0,0
14.10.2018 23:00:00 16,5 6,9 11 6 42 23 S 0,0
14.10.2018 22:00:00 17,0 6,5 11 6 41 22 SE 0,0
14.10.2018 21:00:00 17,4 6,3 11 6 48 26 SSE 0,0
14.10.2018 20:00:00 17,5 8,4 15 8 52 28 SSE -
14.10.2018 19:00:00 17,6 8,4 18 10 52 28 SSE 0,0
14.10.2018 18:00:00 18,5 8,2 11 6 54 29 SSE 0,0
14.10.2018 17:00:00 19,1 7,8 13 7 48 26 SE 0,0
14.10.2018 16:00:00 19,7 8,1 11 6 55 30 SSE 0,0
14.10.2018 15:00:00 21,2 7,4 13 7 50 27 SSE 0,0
14.10.2018 14:00:00 21,0 7,2 16 9 54 29 SSE -
14.10.2018 13:00:00 20,7 7,0 13 7 55 30 SSE 0,0
14.10.2018 12:00:00 19,4 6,8 15 8 59 32 SSE 0,0
14.10.2018 11:00:00 18,4 6,6 11 6 48 26 SSE 0,0
14.10.2018 10:00:00 17,2 6,1 15 8 63 34 SSE 0,0
14.10.2018 09:00:00 16,0 5,6 16 9 68 37 SSE 0,0
14.10.2018 08:00:00 15,8 5,1 15 8 72 39 SSE -
14.10.2018 07:00:00 15,8 4,5 15 8 59 32 SSE 0,0
14.10.2018 06:00:00 15,9 5,2 13 7 57 31 SSE 0,0
14.10.2018 05:00:00 16,0 7,7 13 7 52 28 SE 0,0
14.10.2018 04:00:00 16,0 8,7 13 7 59 32 SE 0,0
14.10.2018 03:00:00 15,9 9,3 13 7 46 25 SE 0,0
14.10.2018 02:00:00 16,1 10,0 9 5 34 18 SE -
14.10.2018 01:00:00 16,3 9,7 8 4 29 16 SSE 0,0
14.10.2018 00:00:00 16,9 9,3 9 5 29 16 SSW 0,0
13.10.2018 23:00:00 17,5 8,9 9 5 31 17 SSW 0,0
13.10.2018 22:00:00 18,1 8,6 8 4 41 22 S 0,0

tt = Température de l'air
td = dewpoint
ff = Vitesse du vent
fx = gusts
dd = Direction du vent
rr = Quantités de précipitations

stations d'obs. à proximité